CPX204 Details

Departure: Liège Airport (EBLG) at 1130 UTC
Arrival: Washington Dulles International Airport (KIAD) at 2000 UTC


Current Weather Information
EBLG 212220Z 29003KT 6000 SCT007 BKN009 10/09 Q1019 NOSIG
KIAD 212152Z 34009KT 10SM SCT140 SCT250 21/05 A3007 RMK AO2 SLP180 T02110050